Time;durP1;ratioP1;P1;durP2;ratioP2;P2;SDS_P1;SDS_P2;PMS_P1;PMS_P2;Temp;Humidity;BMP_temperature;BMP_pressure;BME280_temperature;BME280_humidity;BME280_pressure;Samples;Min_cycle;Max_cycle;Signal;HPM_P1;HPM_P2
2023/07/17 00:00:25;;;;;;;6.50;3.90;;;;;;;22.91;49.90;100391.30;105655;1251;60478;-70
2023/07/17 00:02:52;;;;;;;8.60;3.90;;;;;;;22.88;50.09;100392.45;105649;1256;65192;-71
2023/07/17 00:05:22;;;;;;;6.50;3.80;;;;;;;22.86;50.14;100393.92;106165;1254;60529;-70
2023/07/17 00:07:50;;;;;;;8.60;3.40;;;;;;;22.86;50.13;100399.52;105457;1254;62850;-70
2023/07/17 00:10:17;;;;;;;6.20;3.90;;;;;;;22.85;50.23;100401.17;106057;1257;59392;-70
2023/07/17 00:12:44;;;;;;;6.40;3.80;;;;;;;22.88;50.19;100398.04;105882;1256;60409;-70
2023/07/17 00:15:11;;;;;;;9.20;4.00;;;;;;;22.87;50.06;100398.66;105333;1257;66907;-70
2023/07/17 00:17:39;;;;;;;5.90;3.50;;;;;;;22.87;50.14;100397.05;105308;1251;60428;-72
2023/07/17 00:20:11;;;;;;;8.90;3.70;;;;;;;22.84;50.30;100397.96;105926;1260;64072;-71
2023/07/17 00:22:38;;;;;;;5.70;4.00;;;;;;;22.79;50.33;100398.42;106555;1256;60383;-72
2023/07/17 00:25:05;;;;;;;6.70;3.50;;;;;;;22.75;50.38;100395.00;106516;1251;60426;-72
2023/07/17 00:27:35;;;;;;;5.80;3.80;;;;;;;22.72;50.67;100391.61;106455;1254;65212;-70
2023/07/17 00:30:02;;;;;;;6.60;4.00;;;;;;;22.72;50.80;100388.79;105579;1257;60485;-71
2023/07/17 00:32:29;;;;;;;7.00;4.20;;;;;;;22.71;50.68;100386.52;105774;1253;64071;-72
2023/07/17 00:34:57;;;;;;;8.30;3.70;;;;;;;22.72;50.62;100387.30;105411;1253;60413;-72
2023/07/17 00:37:24;;;;;;;5.50;3.80;;;;;;;22.73;50.79;100384.16;105411;1251;60447;-72
2023/07/17 00:39:52;;;;;;;6.40;3.90;;;;;;;22.72;50.84;100380.27;106092;1255;64994;-73
2023/07/17 00:42:20;;;;;;;7.00;4.00;;;;;;;22.71;51.38;100382.38;105889;1255;60506;-71
2023/07/17 00:44:47;;;;;;;7.10;3.70;;;;;;;22.71;53.05;100384.02;105641;1251;63792;-71
2023/07/17 00:47:14;;;;;;;6.20;3.80;;;;;;;22.68;53.41;100385.15;105641;1253;60479;-71
2023/07/17 00:49:42;;;;;;;5.30;3.70;;;;;;;22.66;53.06;100380.35;105965;1251;60412;-71
2023/07/17 00:52:10;;;;;;;7.60;3.90;;;;;;;22.65;52.57;100380.09;106010;1260;65064;-71
2023/07/17 00:54:39;;;;;;;7.30;4.00;;;;;;;22.61;52.17;100379.73;105846;1256;60489;-72
2023/07/17 00:57:06;;;;;;;6.50;3.40;;;;;;;22.56;52.09;100378.23;105862;1253;63809;-72
2023/07/17 00:59:36;;;;;;;4.80;3.60;;;;;;;22.60;51.95;100379.17;105400;1253;60612;-71
2023/07/17 01:02:04;;;;;;;6.30;3.90;;;;;;;22.61;51.68;100374.45;105807;1253;60491;-71
2023/07/17 01:04:33;;;;;;;12.00;3.60;;;;;;;22.57;51.53;100376.20;105151;1259;65116;-70
2023/07/17 01:07:00;;;;;;;8.40;3.80;;;;;;;22.52;51.62;100371.97;105717;1253;60404;-72
2023/07/17 01:09:29;;;;;;;6.30;3.70;;;;;;;22.50;51.77;100368.61;105921;1253;64060;-71
2023/07/17 01:11:56;;;;;;;6.00;3.80;;;;;;;22.49;51.67;100366.48;105573;1251;60610;-70
2023/07/17 01:14:22;;;;;;;7.20;3.30;;;;;;;22.48;51.72;100366.59;105431;1257;60495;-72
2023/07/17 01:16:49;;;;;;;9.90;3.80;;;;;;;22.48;51.54;100364.44;105465;1256;65235;-71
2023/07/17 01:19:17;;;;;;;9.90;3.60;;;;;;;22.49;51.51;100369.35;105944;1252;60402;-71
2023/07/17 01:21:50;;;;;;;6.10;3.50;;;;;;;22.49;51.49;100372.86;105570;1251;64174;-70
2023/07/17 01:24:19;;;;;;;6.10;3.20;;;;;;;22.50;51.84;100372.45;106004;1252;60774;-73
2023/07/17 01:26:45;;;;;;;4.50;3.60;;;;;;;22.50;52.09;100372.05;106582;1252;58159;-71
2023/07/17 01:29:12;;;;;;;5.10;3.60;;;;;;;22.50;52.27;100373.12;105700;1256;64992;-71
2023/07/17 01:31:41;;;;;;;7.90;3.70;;;;;;;22.52;52.15;100374.20;105504;1253;60457;-70
2023/07/17 01:34:09;;;;;;;4.80;3.20;;;;;;;22.53;52.14;100375.41;105718;1254;64029;-71
2023/07/17 01:36:37;;;;;;;5.90;3.80;;;;;;;22.54;51.87;100376.90;105536;1259;60531;-71
2023/07/17 01:39:04;;;;;;;6.30;3.40;;;;;;;22.55;51.80;100378.06;105760;1251;60441;-71
2023/07/17 01:41:33;;;;;;;5.60;3.50;;;;;;;22.55;51.78;100377.86;105841;1254;65215;-71
2023/07/17 01:44:00;;;;;;;5.60;3.40;;;;;;;22.54;51.81;100376.36;108117;1253;60343;-71
2023/07/17 01:46:28;;;;;;;7.70;3.60;;;;;;;22.52;51.60;100377.35;105589;1252;64858;-71
2023/07/17 01:48:55;;;;;;;4.30;3.60;;;;;;;22.51;51.61;100374.50;105544;1251;60416;-71
2023/07/17 01:51:22;;;;;;;11.10;3.30;;;;;;;22.47;51.72;100373.46;105587;1251;60418;-71
2023/07/17 01:53:49;;;;;;;7.50;4.00;;;;;;;22.45;51.81;100373.42;105567;1252;63847;-70
2023/07/17 01:56:17;;;;;;;4.90;3.30;;;;;;;22.42;51.91;100373.08;105706;1256;60513;-73
2023/07/17 01:58:44;;;;;;;7.00;3.50;;;;;;;22.40;52.28;100376.13;105854;1253;64077;-73
2023/07/17 02:01:11;;;;;;;8.70;4.00;;;;;;;22.40;52.64;100374.67;105443;1259;60524;-72
2023/07/17 02:03:40;;;;;;;5.00;3.30;;;;;;;22.40;52.75;100375.35;105702;1253;60400;-72
2023/07/17 02:06:07;;;;;;;6.80;3.20;;;;;;;22.42;52.84;100374.20;105646;1251;65231;-71
2023/07/17 02:08:34;;;;;;;4.50;3.30;;;;;;;22.41;52.49;100372.23;106193;1253;60440;-72
2023/07/17 02:11:01;;;;;;;11.60;3.50;;;;;;;22.39;52.45;100371.45;106000;1251;64603;-72
2023/07/17 02:13:28;;;;;;;6.70;3.30;;;;;;;22.39;52.51;100371.86;105356;1253;60477;-72
2023/07/17 02:15:56;;;;;;;6.80;3.30;;;;;;;22.38;52.53;100374.20;105873;1251;60510;-71
2023/07/17 02:18:23;;;;;;;5.50;3.20;;;;;;;22.38;52.48;100377.75;105921;1255;66854;-72
2023/07/17 02:20:51;;;;;;;5.80;3.50;;;;;;;22.38;52.46;100375.89;108325;1253;60355;-71
2023/07/17 02:23:18;;;;;;;8.20;2.80;;;;;;;22.37;52.30;100374.07;105800;1254;63889;-73
2023/07/17 02:25:45;;;;;;;8.30;3.10;;;;;;;22.38;52.50;100375.61;106113;1251;60180;-72
2023/07/17 02:28:14;;;;;;;5.30;3.10;;;;;;;22.41;52.75;100374.06;105636;1251;60524;-71
2023/07/17 02:30:42;;;;;;;6.80;3.30;;;;;;;22.45;52.59;100373.25;105576;1259;65185;-72
2023/07/17 02:33:09;;;;;;;4.70;3.00;;;;;;;22.45;52.44;100368.33;105905;1253;59754;-71
2023/07/17 02:35:37;;;;;;;5.90;3.30;;;;;;;22.48;52.46;100371.91;105481;1251;64023;-70
2023/07/17 02:38:06;;;;;;;5.10;3.00;;;;;;;22.50;52.35;100371.71;105425;1253;60499;-70
2023/07/17 02:40:33;;;;;;;7.90;3.10;;;;;;;22.53;52.21;100372.17;105592;1256;60406;-72
2023/07/17 02:43:01;;;;;;;5.90;3.20;;;;;;;22.56;52.16;100370.95;106449;1253;65374;-72
2023/07/17 02:45:29;;;;;;;4.90;3.40;;;;;;;22.59;51.88;100373.61;105425;1254;60533;-69
2023/07/17 02:47:56;;;;;;;5.60;3.40;;;;;;;22.60;51.68;100376.95;105590;1257;64528;-71
2023/07/17 02:50:23;;;;;;;5.60;3.20;;;;;;;22.60;51.54;100376.70;105553;1251;60629;-70
2023/07/17 02:52:50;;;;;;;10.30;3.40;;;;;;;22.61;51.36;100376.20;106213;1251;60447;-71
2023/07/17 02:55:17;;;;;;;6.20;3.20;;;;;;;22.64;51.56;100375.08;105468;1259;65179;-71
2023/07/17 02:57:45;;;;;;;5.70;3.40;;;;;;;22.68;51.73;100373.45;105517;1253;60537;-70
2023/07/17 03:00:14;;;;;;;5.90;3.00;;;;;;;22.70;51.51;100370.98;105930;1253;64003;-71
2023/07/17 03:02:42;;;;;;;6.10;3.40;;;;;;;22.74;51.42;100368.83;105731;1252;60511;-71
2023/07/17 03:05:14;;;;;;;4.80;2.90;;;;;;;22.79;51.20;100367.45;105583;1253;60352;-71
2023/07/17 03:07:44;;;;;;;6.40;3.20;;;;;;;22.84;51.11;100370.77;105857;1254;66112;-72
2023/07/17 03:10:15;;;;;;;6.20;3.40;;;;;;;22.89;51.10;100379.86;105416;1253;60447;-72
2023/07/17 03:12:42;;;;;;;5.00;3.20;;;;;;;22.92;50.91;100380.20;105522;1253;63742;-70
2023/07/17 03:15:11;;;;;;;5.40;3.40;;;;;;;22.96;50.73;100378.83;105906;1252;60534;-71
2023/07/17 03:17:38;;;;;;;7.50;3.20;;;;;;;22.99;50.47;100379.52;105740;1251;60419;-72
2023/07/17 03:20:09;;;;;;;5.50;3.00;;;;;;;23.02;50.48;100381.02;105692;1258;65032;-71
2023/07/17 03:22:37;;;;;;;4.80;2.80;;;;;;;23.05;50.16;100379.16;105258;1253;60829;-72
2023/07/17 03:25:05;;;;;;;6.60;3.30;;;;;;;23.10;50.22;100380.21;105776;1254;63910;-73
2023/07/17 03:27:33;;;;;;;4.50;3.10;;;;;;;23.15;50.09;100383.61;105453;1254;60345;-71
2023/07/17 03:30:01;;;;;;;7.00;3.00;;;;;;;23.18;49.92;100388.11;105745;1256;60505;-70
2023/07/17 03:32:33;;;;;;;5.40;3.20;;;;;;;23.22;49.83;100387.20;107185;1256;65720;-72
2023/07/17 03:35:01;;;;;;;6.10;3.30;;;;;;;23.26;49.66;100383.36;105778;1257;60619;-70
2023/07/17 03:37:29;;;;;;;5.80;3.30;;;;;;;23.31;49.65;100382.74;105528;1254;64044;-72
2023/07/17 03:39:56;;;;;;;6.60;3.50;;;;;;;23.35;49.78;100379.52;105639;1253;60422;-70
2023/07/17 03:42:24;;;;;;;13.00;3.20;;;;;;;23.38;49.88;100379.70;105669;1251;60942;-72
2023/07/17 03:44:51;;;;;;;9.10;3.40;;;;;;;23.40;49.72;100382.43;105190;1252;65030;-73
2023/07/17 03:47:19;;;;;;;6.60;3.20;;;;;;;23.41;49.93;100384.00;105501;1254;60721;-71
2023/07/17 03:49:48;;;;;;;9.60;3.60;;;;;;;23.41;50.05;100384.09;105190;1256;63978;-72
2023/07/17 03:52:15;;;;;;;7.60;4.20;;;;;;;23.38;50.19;100386.08;105974;1251;60370;-71
2023/07/17 03:54:44;;;;;;;5.20;3.60;;;;;;;23.36;50.46;100385.83;105743;1252;60462;-71
2023/07/17 03:57:11;;;;;;;6.90;3.70;;;;;;;23.36;50.57;100385.27;105562;1256;65209;-72
2023/07/17 03:59:52;;;;;;;6.90;3.80;;;;;;;23.38;50.77;100387.95;105501;1258;60556;-72
2023/07/17 04:02:40;;;;;;;5.80;3.50;;;;;;;23.39;50.80;100394.80;105382;1254;63918;-71
2023/07/17 04:05:10;;;;;;;9.30;3.80;;;;;;;23.37;50.54;100395.25;105487;1259;60533;-72
2023/07/17 04:07:37;;;;;;;8.60;3.50;;;;;;;23.35;50.56;100399.26;105849;1252;250043;-70
2023/07/17 04:10:05;;;;;;;7.10;3.70;;;;;;;23.35;50.72;100396.27;105354;1259;65318;-71
2023/07/17 04:12:32;;;;;;;7.10;3.60;;;;;;;23.37;50.80;100398.31;106104;1253;60533;-72
2023/07/17 04:15:00;;;;;;;9.50;3.50;;;;;;;23.41;50.94;100399.55;105726;1253;64684;-71
2023/07/17 04:17:28;;;;;;;7.00;3.90;;;;;;;23.46;50.98;100395.34;105914;1252;60333;-71
2023/07/17 04:19:55;;;;;;;5.80;3.40;;;;;;;23.52;51.02;100393.72;106074;1251;60409;-72
2023/07/17 04:22:22;;;;;;;9.80;3.70;;;;;;;23.56;50.62;100391.66;105771;1256;65245;-71
2023/07/17 04:24:49;;;;;;;5.60;4.00;;;;;;;23.57;50.50;100389.84;107028;1252;59329;-71
2023/07/17 04:27:16;;;;;;;7.60;4.00;;;;;;;23.60;50.48;100386.04;105666;1254;64145;-71
2023/07/17 04:29:44;;;;;;;8.60;3.90;;;;;;;23.65;50.35;100383.45;105492;1256;60421;-71
2023/07/17 04:32:13;;;;;;;10.50;4.40;;;;;;;23.67;50.48;100383.45;106215;1251;60422;-72
2023/07/17 04:34:41;;;;;;;4.30;3.80;;;;;;;23.71;50.62;100383.36;105509;1260;65082;-70
2023/07/17 04:37:09;;;;;;;7.80;4.00;;;;;;;23.76;50.74;100389.88;105412;1254;60382;-73
2023/07/17 04:39:37;;;;;;;6.20;4.10;;;;;;;23.81;50.64;100393.77;105547;1254;63980;-72
2023/07/17 04:42:05;;;;;;;8.00;4.90;;;;;;;23.88;50.74;100399.91;105524;1254;60506;-71
2023/07/17 04:44:31;;;;;;;11.20;5.00;;;;;;;23.94;50.83;100402.66;105442;1259;60432;-71
2023/07/17 04:46:59;;;;;;;7.10;5.10;;;;;;;23.98;50.83;100407.14;105478;1258;65883;-72
2023/07/17 04:49:27;;;;;;;10.50;4.90;;;;;;;24.03;50.89;100403.69;105836;1253;60482;-71
2023/07/17 04:51:54;;;;;;;7.10;5.10;;;;;;;24.06;50.23;100398.91;105633;1253;63980;-71
2023/07/17 04:54:21;;;;;;;7.40;5.00;;;;;;;24.11;49.97;100398.56;105500;1251;60437;-70
2023/07/17 04:56:48;;;;;;;10.10;5.20;;;;;;;24.16;49.85;100400.35;105682;1259;60568;-71
2023/07/17 04:59:19;;;;;;;5.90;4.80;;;;;;;24.20;49.90;100404.28;106599;1254;65285;-71
2023/07/17 05:01:47;;;;;;;9.00;4.90;;;;;;;24.26;50.00;100406.30;105920;1255;60539;-71
2023/07/17 05:04:17;;;;;;;10.60;4.70;;;;;;;24.36;50.21;100405.98;105734;1259;64026;-72
2023/07/17 05:06:44;;;;;;;9.50;5.00;;;;;;;24.46;50.28;100408.29;105673;1253;60510;-72
2023/07/17 05:09:11;;;;;;;11.10;4.80;;;;;;;24.57;50.29;100403.08;105944;1255;60449;-72
2023/07/17 05:11:41;;;;;;;8.40;5.00;;;;;;;24.69;50.19;100399.59;105848;1259;65299;-73
2023/07/17 05:14:11;;;;;;;6.40;4.60;;;;;;;24.78;50.06;100402.33;106197;1258;60432;-71
2023/07/17 05:16:40;;;;;;;7.20;5.00;;;;;;;24.87;49.97;100401.10;105540;1254;63910;-72
2023/07/17 05:19:08;;;;;;;8.70;5.10;;;;;;;24.96;49.83;100404.99;105835;1254;60476;-71
2023/07/17 05:21:36;;;;;;;6.70;5.00;;;;;;;25.03;49.67;100406.39;105672;1252;60572;-71
2023/07/17 05:24:04;;;;;;;10.80;5.00;;;;;;;25.12;49.58;100405.57;105277;1254;67481;-71
2023/07/17 05:26:31;;;;;;;7.00;4.40;;;;;;;25.22;49.45;100402.36;106254;1253;60598;-71
2023/07/17 05:28:59;;;;;;;8.30;4.60;;;;;;;25.31;49.37;100402.23;105603;1253;64063;-70
2023/07/17 05:31:27;;;;;;;8.20;4.70;;;;;;;25.43;49.41;100402.52;105626;1254;60328;-72
2023/07/17 05:33:56;;;;;;;6.80;4.50;;;;;;;25.53;49.50;100399.73;107056;1251;60450;-72
2023/07/17 05:36:23;;;;;;;6.00;4.00;;;;;;;25.65;49.25;100400.92;105705;1257;65104;-71
2023/07/17 05:38:50;;;;;;;7.20;4.40;;;;;;;25.78;49.10;100404.38;105520;1254;60460;-71
2023/07/17 05:41:18;;;;;;;6.40;4.50;;;;;;;25.91;48.97;100402.60;105522;1254;63923;-72
2023/07/17 05:43:45;;;;;;;7.50;4.30;;;;;;;26.06;48.77;100396.59;106593;1251;60432;-71
2023/07/17 05:46:15;;;;;;;7.10;3.80;;;;;;;26.20;47.68;100393.17;105536;1251;60444;-72
2023/07/17 05:48:43;;;;;;;9.30;4.00;;;;;;;26.33;46.72;100394.84;105911;1257;65187;-71
2023/07/17 05:51:10;;;;;;;6.10;3.70;;;;;;;26.45;45.86;100396.85;105877;1257;60428;-71
2023/07/17 05:53:38;;;;;;;5.30;3.80;;;;;;;26.56;45.24;100398.73;105794;1253;64159;-72
2023/07/17 05:56:06;;;;;;;11.50;3.90;;;;;;;26.66;45.59;100398.52;106267;1251;60404;-72
2023/07/17 05:58:35;;;;;;;6.00;3.90;;;;;;;26.77;45.80;100390.67;105317;1254;60533;-71
2023/07/17 06:01:02;;;;;;;8.50;3.80;;;;;;;26.88;44.92;100394.29;106034;1257;65775;-73
2023/07/17 06:03:30;;;;;;;6.20;3.70;;;;;;;26.96;44.75;100396.28;106089;1257;60622;-70
2023/07/17 06:05:57;;;;;;;6.50;3.80;;;;;;;27.02;44.57;100398.13;105997;1256;62604;-71
2023/07/17 06:08:25;;;;;;;10.80;3.50;;;;;;;27.12;44.63;100401.98;105587;1251;60437;-72
2023/07/17 06:10:53;;;;;;;5.30;3.30;;;;;;;27.21;44.55;100397.99;106141;1252;60616;-73
2023/07/17 06:13:20;;;;;;;5.80;3.10;;;;;;;27.33;43.96;100397.88;106627;1252;64005;-73
2023/07/17 06:15:51;;;;;;;4.90;3.50;;;;;;;27.46;44.33;100395.11;105862;1259;60434;-74
2023/07/17 06:18:18;;;;;;;4.90;3.60;;;;;;;27.58;44.27;100392.83;106083;1257;63971;-73
2023/07/17 06:20:45;;;;;;;6.30;3.70;;;;;;;27.69;44.03;100392.10;105653;1251;60518;-73
2023/07/17 06:23:12;;;;;;;5.10;3.20;;;;;;;27.81;43.99;100394.19;105538;1257;60502;-72
2023/07/17 06:25:42;;;;;;;7.00;3.40;;;;;;;27.92;43.70;100393.04;106038;1254;63814;-72
2023/07/17 06:28:09;;;;;;;7.00;3.80;;;;;;;27.98;42.91;100393.73;106716;1258;60422;-72
2023/07/17 06:30:36;;;;;;;5.40;3.60;;;;;;;28.05;42.88;100394.48;106370;1255;66025;-72
2023/07/17 06:33:04;;;;;;;4.70;3.60;;;;;;;28.12;42.78;100387.38;106531;1255;60486;-72
2023/07/17 06:35:32;;;;;;;5.20;3.30;;;;;;;28.21;42.35;100383.88;106287;1251;60398;-70
2023/07/17 06:37:59;;;;;;;5.60;3.40;;;;;;;28.26;42.19;100380.90;105688;1257;65059;-70
2023/07/17 06:40:26;;;;;;;9.30;3.60;;;;;;;28.33;42.26;100380.59;105758;1254;60536;-71
2023/07/17 06:42:52;;;;;;;5.30;3.30;;;;;;;28.37;42.01;100380.09;105717;1254;64205;-70
2023/07/17 06:45:28;;;;;;;10.80;3.50;;;;;;;28.43;41.94;100377.98;105877;1251;60339;-71
2023/07/17 06:47:58;;;;;;;7.60;3.80;;;;;;;28.49;41.64;100380.69;106059;1257;60836;-71
2023/07/17 06:50:26;;;;;;;8.00;3.40;;;;;;;28.57;41.99;100378.29;105328;1260;65197;-69
2023/07/17 06:52:53;;;;;;;5.40;3.80;;;;;;;28.65;41.94;100375.83;105855;1254;60555;-70
2023/07/17 06:55:22;;;;;;;6.50;3.00;;;;;;;28.73;41.77;100375.02;106003;1256;64088;-72
2023/07/17 06:57:57;;;;;;;5.70;3.50;;;;;;;28.82;41.68;100375.52;105643;1254;60457;-71
2023/07/17 07:00:24;;;;;;;5.90;3.30;;;;;;;28.90;41.71;100378.59;106215;1252;60425;-72
2023/07/17 07:02:50;;;;;;;5.70;3.50;;;;;;;28.98;41.50;100384.69;105693;1254;65064;-70
2023/07/17 07:05:17;;;;;;;8.70;3.70;;;;;;;29.07;41.33;100388.02;105972;1259;60540;-70
2023/07/17 07:07:45;;;;;;;6.80;3.40;;;;;;;29.16;41.28;100385.73;105477;1254;63915;-70
2023/07/17 07:10:12;;;;;;;7.10;3.70;;;;;;;29.24;41.21;100385.11;105751;1259;60366;-69
2023/07/17 07:12:39;;;;;;;7.10;3.90;;;;;;;29.34;41.22;100387.90;105943;1251;60438;-68
2023/07/17 07:15:08;;;;;;;11.00;3.80;;;;;;;29.43;41.27;100388.56;105919;1256;65109;-69
2023/07/17 07:17:35;;;;;;;5.60;3.80;;;;;;;29.56;41.15;100388.91;105890;1251;60533;-68
2023/07/17 07:20:08;;;;;;;7.00;3.90;;;;;;;29.67;40.71;100386.86;106173;1251;62784;-73
2023/07/17 07:22:38;;;;;;;8.30;4.10;;;;;;;29.77;40.99;100386.05;105969;1253;60409;-71
2023/07/17 07:25:06;;;;;;;7.90;4.10;;;;;;;29.84;40.85;100384.27;106091;1254;60485;-70
2023/07/17 07:27:34;;;;;;;5.00;4.00;;;;;;;29.91;40.88;100388.45;105859;1251;64007;-70
2023/07/17 07:30:04;;;;;;;9.40;3.90;;;;;;;29.93;40.08;100385.94;105935;1258;60561;-71
2023/07/17 07:32:32;;;;;;;8.10;3.70;;;;;;;29.95;40.28;100386.34;107802;1256;64011;-73
2023/07/17 07:34:59;;;;;;;7.20;3.90;;;;;;;29.99;40.52;100386.17;106116;1251;60294;-71
2023/07/17 07:37:26;;;;;;;7.50;3.60;;;;;;;30.09;40.69;100386.46;106115;1251;60419;-71
2023/07/17 07:39:53;;;;;;;5.80;3.70;;;;;;;30.20;40.58;100381.02;106352;1251;63666;-73
2023/07/17 07:42:20;;;;;;;5.00;3.60;;;;;;;30.29;40.50;100382.83;105911;1258;60443;-72
2023/07/17 07:44:47;;;;;;;7.40;3.70;;;;;;;30.36;40.33;100380.79;105977;1257;63786;-73
2023/07/17 07:47:14;;;;;;;7.20;3.80;;;;;;;30.41;40.44;100381.58;106541;1255;60293;-73
2023/07/17 07:49:42;;;;;;;7.40;3.30;;;;;;;30.48;39.83;100377.52;106175;1250;60437;-72
2023/07/17 07:52:09;;;;;;;4.90;3.30;;;;;;;30.56;39.20;100378.83;105689;1257;65240;-73
2023/07/17 07:54:36;;;;;;;4.50;3.40;;;;;;;30.64;38.69;100380.14;107713;1251;60331;-72
2023/07/17 07:57:03;;;;;;;5.60;3.30;;;;;;;30.71;38.51;100381.00;106284;1254;63840;-73
2023/07/17 07:59:30;;;;;;;7.50;3.60;;;;;;;30.75;38.95;100380.27;107498;1257;60527;-71
2023/07/17 08:01:58;;;;;;;7.60;3.30;;;;;;;30.81;39.26;100380.30;105719;1250;60386;-70
2023/07/17 08:04:25;;;;;;;5.50;3.40;;;;;;;30.87;38.68;100377.98;106836;1258;65169;-70
2023/07/17 08:06:52;;;;;;;5.50;3.20;;;;;;;30.95;38.86;100379.91;106063;1254;60538;-71
2023/07/17 08:09:19;;;;;;;4.60;3.30;;;;;;;31.04;38.16;100376.52;106066;1256;64123;-71
2023/07/17 08:11:46;;;;;;;7.20;3.70;;;;;;;31.09;37.79;100373.73;105725;1256;60444;-73
2023/07/17 08:14:14;;;;;;;8.30;3.30;;;;;;;31.16;38.00;100379.31;106387;1256;60405;-71
2023/07/17 08:16:41;;;;;;;4.70;3.50;;;;;;;31.26;38.14;100377.05;106157;1252;65102;-70
2023/07/17 08:19:12;;;;;;;3.90;3.20;;;;;;;31.37;38.35;100377.20;106400;1259;60402;-73
2023/07/17 08:21:39;;;;;;;5.60;3.50;;;;;;;31.47;38.65;100372.93;105808;1255;64016;-73
2023/07/17 08:24:06;;;;;;;5.20;3.40;;;;;;;31.60;38.12;100371.56;106076;1256;60400;-74
2023/07/17 08:26:38;;;;;;;6.60;3.30;;;;;;;31.71;37.96;100367.02;105920;1252;60430;-72
2023/07/17 08:29:06;;;;;;;3.90;2.80;;;;;;;31.82;37.85;100370.45;106056;1251;65292;-71
2023/07/17 08:31:34;;;;;;;13.30;3.70;;;;;;;31.93;37.78;100367.58;105732;1260;60534;-72
2023/07/17 08:34:01;;;;;;;8.60;3.40;;;;;;;32.02;37.37;100370.27;106063;1255;64633;-71
2023/07/17 08:36:28;;;;;;;4.10;3.30;;;;;;;32.11;37.07;100370.37;105903;1258;60465;-71
2023/07/17 08:38:55;;;;;;;6.90;3.50;;;;;;;32.22;37.05;100369.67;105817;1257;60517;-71
2023/07/17 08:41:22;;;;;;;4.90;3.40;;;;;;;32.28;36.85;100371.83;105933;1256;64963;-71
2023/07/17 08:43:49;;;;;;;3.60;3.20;;;;;;;32.35;37.04;100372.06;106292;1264;60556;-71
2023/07/17 08:46:17;;;;;;;6.00;3.50;;;;;;;32.40;37.04;100371.48;105990;1256;64584;-70
2023/07/17 08:48:44;;;;;;;6.30;3.60;;;;;;;32.41;37.23;100374.16;105987;1255;60425;-70
2023/07/17 08:51:21;;;;;;;9.10;3.50;;;;;;;32.48;37.24;100373.27;105853;1255;60444;-72
2023/07/17 08:53:53;;;;;;;10.70;3.50;;;;;;;32.53;37.13;100374.23;109168;1251;64623;-71
2023/07/17 08:56:23;;;;;;;5.90;3.40;;;;;;;32.60;37.38;100375.02;109200;1259;58452;-72
2023/07/17 08:58:50;;;;;;;4.40;3.50;;;;;;;32.71;37.62;100375.33;109353;1250;64084;-72
2023/07/17 09:01:17;;;;;;;6.30;3.50;;;;;;;32.82;37.32;100373.38;109359;1256;58864;-72
2023/07/17 09:03:45;;;;;;;4.30;3.50;;;;;;;32.89;37.04;100376.73;109377;1254;58728;-71
2023/07/17 09:06:13;;;;;;;4.60;3.40;;;;;;;32.95;37.04;100379.88;109356;1251;65188;-71
2023/07/17 09:08:41;;;;;;;8.20;3.60;;;;;;;33.03;37.07;100379.73;106213;1264;60342;-73
2023/07/17 09:11:09;;;;;;;8.30;3.80;;;;;;;33.12;37.33;100373.89;106159;1256;64044;-73
2023/07/17 09:13:38;;;;;;;6.30;3.50;;;;;;;33.23;36.70;100374.23;106340;1264;60428;-72
2023/07/17 09:16:14;;;;;;;5.30;3.30;;;;;;;33.37;36.56;100373.55;108669;1251;58478;-72
2023/07/17 09:18:41;;;;;;;8.80;3.80;;;;;;;33.48;36.08;100374.84;105753;1251;63752;-73
2023/07/17 09:21:17;;;;;;;6.00;3.50;;;;;;;33.52;34.92;100373.86;105442;1252;60399;-74
2023/07/17 09:23:50;;;;;;;6.40;3.40;;;;;;;33.52;34.98;100373.03;106061;1256;64224;-73
2023/07/17 09:26:18;;;;;;;9.00;3.40;;;;;;;33.58;35.27;100374.73;106619;1250;60581;-72
2023/07/17 09:28:48;;;;;;;5.30;3.70;;;;;;;33.64;34.83;100374.94;105954;1257;61020;-71
2023/07/17 09:31:27;;;;;;;9.00;3.70;;;;;;;33.69;35.10;100373.30;106327;1256;65263;-71
2023/07/17 09:33:59;;;;;;;4.50;3.10;;;;;;;33.76;33.59;100373.02;105577;1256;60405;-72
2023/07/17 09:36:26;;;;;;;4.40;3.10;;;;;;;33.81;33.29;100370.72;105746;1251;64076;-72
2023/07/17 09:38:55;;;;;;;5.70;3.30;;;;;;;33.89;32.78;100372.05;106029;1255;60418;-72
2023/07/17 09:41:24;;;;;;;4.50;3.60;;;;;;;34.00;32.63;100368.46;105950;1251;60851;-72
2023/07/17 09:43:57;;;;;;;4.50;3.30;;;;;;;34.10;33.04;100369.16;105872;1251;65082;-72
2023/07/17 09:46:25;;;;;;;5.50;3.30;;;;;;;34.18;33.45;100365.64;106352;1254;60444;-72
2023/07/17 09:48:53;;;;;;;5.50;3.50;;;;;;;34.23;33.26;100367.52;105740;1261;63014;-71
2023/07/17 09:51:20;;;;;;;4.00;3.30;;;;;;;34.24;33.24;100366.16;106174;1251;60418;-71
2023/07/17 09:53:50;;;;;;;6.00;3.30;;;;;;;34.28;33.67;100365.01;105646;1251;60448;-71
2023/07/17 09:56:18;;;;;;;3.70;3.10;;;;;;;34.41;34.18;100361.36;106059;1251;63835;-70
2023/07/17 09:58:50;;;;;;;6.20;3.20;;;;;;;34.57;34.05;100359.70;106236;1250;60775;-71
2023/07/17 10:01:19;;;;;;;5.30;3.40;;;;;;;34.75;34.11;100360.27;106207;1251;63800;-72
2023/07/17 10:03:47;;;;;;;4.80;3.30;;;;;;;34.92;34.04;100353.77;106554;1254;60472;-72
2023/07/17 10:06:15;;;;;;;5.30;3.50;;;;;;;35.11;33.87;100350.09;106867;1251;60573;-70
2023/07/17 10:08:48;;;;;;;4.80;3.20;;;;;;;35.31;34.20;100351.31;106091;1256;64031;-70
2023/07/17 10:11:18;;;;;;;;;;;;;;;35.52;33.83;100355.80;105575;1252;60411;-73
2023/07/17 10:13:47;;;;;;;4.20;3.00;;;;;;;35.67;33.33;100360.66;105670;1254;65218;-73
2023/07/17 10:16:15;;;;;;;4.10;3.10;;;;;;;35.79;32.35;100357.46;106131;1252;60469;-74
2023/07/17 10:18:50;;;;;;;3.50;3.10;;;;;;;35.88;31.81;100361.30;106102;1257;60428;-73
2023/07/17 10:21:17;;;;;;;4.50;3.20;;;;;;;35.93;31.35;100356.16;106302;1251;63991;-72
2023/07/17 10:23:46;;;;;;;3.90;3.20;;;;;;;35.99;31.76;100357.23;106223;1256;60446;-67
2023/07/17 10:26:16;;;;;;;6.10;3.70;;;;;;;36.05;31.82;100359.65;105805;1257;64029;-68
2023/07/17 10:28:49;;;;;;;3.60;3.10;;;;;;;36.09;32.14;100357.46;107437;1254;60398;-69
2023/07/17 10:31:18;;;;;;;;;;;;;;;36.17;31.85;100357.99;105844;1257;60338;-71
2023/07/17 10:33:50;;;;;;;5.70;3.50;;;;;;;36.27;31.96;100352.09;106027;1251;63891;-68
2023/07/17 10:36:18;;;;;;;4.60;3.00;;;;;;;36.44;32.34;100352.25;106173;1254;60489;-68
2023/07/17 10:38:50;;;;;;;5.20;3.50;;;;;;;36.61;32.36;100343.33;106582;1258;64029;-69
2023/07/17 10:41:19;;;;;;;6.70;3.60;;;;;;;36.78;31.67;100340.90;107131;1251;60333;-67
2023/07/17 10:43:51;;;;;;;6.50;3.20;;;;;;;36.95;31.53;100348.00;106085;1251;60511;-68
2023/07/17 10:46:29;;;;;;;5.50;3.30;;;;;;;37.06;31.74;100347.40;106587;1251;65027;-67
2023/07/17 10:49:05;;;;;;;7.60;3.80;;;;;;;37.12;31.39;100345.71;105651;1257;60443;-67
2023/07/17 10:51:33;;;;;;;5.70;3.00;;;;;;;37.15;31.57;100343.50;105795;1250;65077;-70
2023/07/17 10:54:00;;;;;;;5.60;3.40;;;;;;;37.19;30.96;100339.59;105695;1254;60422;-68
2023/07/17 10:56:29;;;;;;;8.70;3.60;;;;;;;37.20;31.16;100339.56;105753;1251;60479;-70
2023/07/17 10:58:56;;;;;;;6.20;3.20;;;;;;;37.32;31.30;100341.49;105636;1258;64103;-69
2023/07/17 11:01:23;;;;;;;5.50;3.00;;;;;;;37.48;30.94;100338.48;105795;1252;60502;-70
2023/07/17 11:03:50;;;;;;;7.60;3.20;;;;;;;37.62;30.85;100336.65;106121;1254;64678;-69
2023/07/17 11:06:17;;;;;;;4.70;3.20;;;;;;;37.75;30.88;100339.45;105887;1251;60422;-69
2023/07/17 11:08:48;;;;;;;5.30;3.50;;;;;;;37.89;30.32;100339.48;105673;1251;60411;-69
2023/07/17 11:11:17;;;;;;;6.70;3.20;;;;;;;37.99;29.62;100336.75;105993;1251;64954;-68
2023/07/17 11:13:44;;;;;;;7.10;3.30;;;;;;;38.06;30.18;100337.39;106441;1254;60543;-70
2023/07/17 11:16:12;;;;;;;3.50;3.20;;;;;;;38.18;29.86;100336.65;105913;1258;63967;-70
2023/07/17 11:18:53;;;;;;;3.90;3.30;;;;;;;38.30;29.93;100344.78;106146;1256;60325;-71
2023/07/17 11:21:24;;;;;;;4.20;3.20;;;;;;;38.42;29.72;100340.66;105994;1254;60604;-68